This is the latest recevied weather packets stored in our database for station/object KQ4DLB-13. If no packets are shown the sender has not sent any weather packets the latest 10 day(s).
| Time | Temp. | Humidity | Pressure | Rain* | Wind** | Luminosity | Snow |
|---|---|---|---|---|---|---|---|
| 1777490102 | 18.33° C | 83% | 989.4 hPa | 0 mm | - | 242 W/m² | - |
| 1777489802 | 18.89° C | 83% | 989.4 hPa | 0 mm | - | 104 W/m² | - |
| 1777489502 | 19.44° C | 80% | 989.5 hPa | 0 mm | - | 168 W/m² | - |
| 1777489202 | 18.89° C | 81% | 989.5 hPa | 0 mm | - | 555 W/m² | - |
| 1777488902 | 18.89° C | 82% | 989.4 hPa | 0 mm | - | 486 W/m² | - |
| 1777488602 | 18.89° C | 82% | 989.2 hPa | 0 mm | - | 226 W/m² | - |
| 1777488303 | 19.44° C | 81% | 989.3 hPa | 0 mm | - | 149 W/m² | - |
| 1777488002 | 19.44° C | 80% | 989.3 hPa | 0 mm | - | 354 W/m² | - |
| 1777487702 | 20° C | 79% | 989.2 hPa | 0 mm | - | 242 W/m² | - |
| 1777487402 | 20° C | 78% | 989.3 hPa | 0 mm | - | 497 W/m² | - |
| 1777487102 | 20° C | 80% | 989.4 hPa | 0 mm | - | 622 W/m² | - |
| 1777486802 | 19.44° C | 80% | 989.4 hPa | 0 mm | - | 599 W/m² | - |
| 1777486502 | 19.44° C | 80% | 989.3 hPa | 0 mm | - | 444 W/m² | - |
| 1777486203 | 19.44° C | 79% | 989.4 hPa | 0 mm | - | 362 W/m² | - |
| 1777485903 | 19.44° C | 81% | 989.5 hPa | 0 mm | - | 596 W/m² | - |
| 1777485603 | 18.89° C | 82% | 989.5 hPa | 0 mm | - | 540 W/m² | - |
| 1777485302 | 18.89° C | 83% | 989.4 hPa | 0 mm | - | 276 W/m² | - |
| 1777485002 | 19.44° C | 82% | 989.3 hPa | 0 mm | - | 202 W/m² | - |
| 1777484702 | 19.44° C | 81% | 989.4 hPa | 0 mm | - | 272 W/m² | - |
| 1777484402 | 20° C | 81% | 989.3 hPa | 0 mm | - | 230 W/m² | - |
| 1777484102 | 20° C | 81% | 989.3 hPa | 0 mm | - | 350 W/m² | - |
| 1777483802 | 20° C | 81% | 989.4 hPa | 0 mm | - | 628 W/m² | - |
| 1777483503 | 20° C | 81% | 989.5 hPa | 0 mm | - | 540 W/m² | - |
| 1777483202 | 20° C | 81% | 989.7 hPa | 0 mm | - | 809 W/m² | - |
| 1777482902 | 19.44° C | 84% | 989.7 hPa | 0 mm | - | 912 W/m² | - |
* Rain latest hour (hover to see other rain measurements)
** Current wind speed in m/s (hover to see current wind gust speed)